createdAt,value
2023-03-07T00:00:15.952Z,74.84
2023-03-07T00:03:21.233Z,73.96
2023-03-07T00:06:25.078Z,73.12
2023-03-07T00:09:29.088Z,71.22
2023-03-07T00:12:33.026Z,71.77
2023-03-07T00:15:40.816Z,70.99
2023-03-07T00:18:46.246Z,72.12
2023-03-07T00:21:50.104Z,72.90
2023-03-07T00:24:54.160Z,72.10
2023-03-07T00:27:57.939Z,71.26
2023-03-07T00:31:03.278Z,71.36
2023-03-07T00:34:08.735Z,70.68
2023-03-07T00:37:12.626Z,71.20
2023-03-07T00:40:16.574Z,70.52
2023-03-07T00:43:20.620Z,72.24
2023-03-07T00:46:26.444Z,72.28
2023-03-07T00:49:32.129Z,72.48
2023-03-07T00:52:36.293Z,73.39
2023-03-07T00:55:40.214Z,73.85
2023-03-07T00:58:44.261Z,73.84
2023-03-07T01:01:47.904Z,73.74
2023-03-07T01:04:53.354Z,72.44
2023-03-07T01:07:57.135Z,72.42
2023-03-07T01:11:02.204Z,73.07
2023-03-07T01:14:07.982Z,71.53
2023-03-07T01:17:13.024Z,72.06
2023-03-07T01:20:18.495Z,71.54
2023-03-07T01:23:22.685Z,72.24
2023-03-07T01:26:28.856Z,71.39
2023-03-07T01:29:32.922Z,72.04
2023-03-07T01:32:37.245Z,72.85
2023-03-07T01:35:42.959Z,72.54
2023-03-07T01:38:47.064Z,72.91
2023-03-07T01:41:51.220Z,71.47
2023-03-07T01:45:09.531Z,70.47
2023-03-07T01:48:18.378Z,70.13
2023-03-07T01:51:25.261Z,70.53
2023-03-07T01:54:32.817Z,71.24
2023-03-07T01:57:40.345Z,75.07
2023-03-07T02:00:47.588Z,71.85
2023-03-07T02:03:55.044Z,72.41
2023-03-07T02:07:02.896Z,74.78
2023-03-07T02:10:08.680Z,72.62
2023-03-07T02:13:12.917Z,72.77
2023-03-07T02:16:17.627Z,74.68
2023-03-07T02:19:37.746Z,74.32
2023-03-07T02:22:43.572Z,72.71
2023-03-07T02:25:55.008Z,72.36
2023-03-07T02:29:02.341Z,71.63
2023-03-07T02:32:08.550Z,70.91
2023-03-07T02:35:16.707Z,71.29
2023-03-07T02:38:24.235Z,71.06
2023-03-07T02:41:31.896Z,71.27
2023-03-07T02:44:40.492Z,70.09
2023-03-07T02:47:44.752Z,71.06
2023-03-07T02:50:51.497Z,69.84
2023-03-07T02:53:55.892Z,69.46
2023-03-07T02:56:59.648Z,69.46
2023-03-07T03:00:08.342Z,70.51
2023-03-07T03:03:12.485Z,70.12
2023-03-07T03:06:17.830Z,71.11
2023-03-07T03:09:21.640Z,69.50
2023-03-07T03:12:25.391Z,69.53
2023-03-07T03:15:30.807Z,68.96
2023-03-07T03:18:34.864Z,69.06
2023-03-07T03:21:38.943Z,69.97
2023-03-07T03:24:44.123Z,71.38
2023-03-07T03:27:51.696Z,70.97
2023-03-07T03:31:01.061Z,72.26
2023-03-07T03:34:06.281Z,72.25
2023-03-07T03:37:11.019Z,71.83
2023-03-07T03:40:18.016Z,70.53
2023-03-07T03:43:22.825Z,69.83
2023-03-07T03:46:28.236Z,70.18
2023-03-07T03:49:33.303Z,71.06
2023-03-07T03:52:37.475Z,70.90
2023-03-07T03:55:41.303Z,70.34
2023-03-07T03:58:47.940Z,71.92
2023-03-07T04:01:55.498Z,70.44
2023-03-07T04:04:59.712Z,70.59
2023-03-07T04:08:04.710Z,69.61
2023-03-07T04:11:08.730Z,69.94
2023-03-07T04:14:12.594Z,70.18
2023-03-07T04:17:18.132Z,72.19
2023-03-07T04:20:22.068Z,70.31
2023-03-07T04:23:27.058Z,69.67
2023-03-07T04:26:31.207Z,72.22
2023-03-07T04:29:35.112Z,74.46
2023-03-07T04:32:49.437Z,74.03
2023-03-07T04:35:53.592Z,72.55
2023-03-07T04:38:57.562Z,73.28
2023-03-07T04:42:01.609Z,72.00
2023-03-07T04:45:12.129Z,71.44
2023-03-07T04:48:17.369Z,70.57
2023-03-07T04:51:21.352Z,70.78
2023-03-07T04:54:26.350Z,71.36
2023-03-07T04:57:30.291Z,72.33
2023-03-07T05:00:34.469Z,71.88
2023-03-07T05:03:39.761Z,75.37
2023-03-07T05:06:44.954Z,73.02
2023-03-07T05:09:49.405Z,72.01
2023-03-07T05:12:53.512Z,71.20
2023-03-07T05:15:59.424Z,70.48
2023-03-07T05:19:06.336Z,71.16
2023-03-07T05:22:10.649Z,72.65
2023-03-07T05:25:14.661Z,73.94
2023-03-07T05:28:19.693Z,72.70
2023-03-07T05:31:23.670Z,74.45
2023-03-07T05:34:29.170Z,71.04
2023-03-07T05:37:33.680Z,70.09
2023-03-07T05:40:37.866Z,70.44
2023-03-07T05:43:42.609Z,73.04
2023-03-07T05:46:46.738Z,71.12
2023-03-07T05:49:52.863Z,70.02
2023-03-07T05:52:56.760Z,68.88
2023-03-07T05:56:03.869Z,68.23
2023-03-07T05:59:08.192Z,67.91
2023-03-07T06:02:12.429Z,68.07
2023-03-07T06:05:17.989Z,68.59
2023-03-07T06:08:22.020Z,68.70
2023-03-07T06:11:26.188Z,68.63
2023-03-07T06:14:30.213Z,68.34
2023-03-07T06:17:34.022Z,68.98
2023-03-07T06:20:39.546Z,70.13
2023-03-07T06:23:43.525Z,69.82
2023-03-07T06:26:50.681Z,67.38
2023-03-07T06:29:57.825Z,67.21
2023-03-07T06:33:02.114Z,64.23
2023-03-07T06:36:09.721Z,63.43
2023-03-07T06:39:17.263Z,63.04
2023-03-07T06:42:21.239Z,61.92
2023-03-07T06:45:25.486Z,60.49
2023-03-07T06:48:29.727Z,61.84
2023-03-07T06:51:37.842Z,61.10
2023-03-07T06:54:43.029Z,59.73
2023-03-07T06:57:47.260Z,59.61
2023-03-07T07:00:51.555Z,59.08
2023-03-07T07:03:55.435Z,58.71
2023-03-07T07:07:00.816Z,57.39
2023-03-07T07:10:05.761Z,59.97
2023-03-07T07:13:12.763Z,58.17
2023-03-07T07:16:17.297Z,57.69
2023-03-07T07:19:22.298Z,56.78
2023-03-07T07:22:27.640Z,56.58
2023-03-07T07:25:31.479Z,57.35
2023-03-07T07:28:35.282Z,55.18
2023-03-07T07:31:41.492Z,54.44
2023-03-07T07:34:45.612Z,53.87
2023-03-07T07:37:51.140Z,54.36
2023-03-07T07:40:56.434Z,52.79
2023-03-07T07:44:02.012Z,54.84
2023-03-07T07:47:13.612Z,53.00
2023-03-07T07:50:18.456Z,52.38
2023-03-07T07:53:23.904Z,51.54
2023-03-07T07:56:28.165Z,50.61
2023-03-07T07:59:34.369Z,50.64
2023-03-07T08:02:40.769Z,50.18
2023-03-07T08:05:46.089Z,50.68
2023-03-07T08:08:52.051Z,49.37
2023-03-07T08:11:56.012Z,50.10
2023-03-07T08:14:59.897Z,51.97
2023-03-07T08:18:03.998Z,50.65
2023-03-07T08:21:08.861Z,50.54
2023-03-07T08:24:14.166Z,50.46
2023-03-07T08:27:18.048Z,49.67
2023-03-07T08:30:22.178Z,49.19
2023-03-07T08:33:26.190Z,48.10
2023-03-07T08:36:37.739Z,47.16
2023-03-07T08:39:42.968Z,46.95
2023-03-07T08:42:46.806Z,46.27
2023-03-07T08:45:53.140Z,45.61
2023-03-07T08:48:57.072Z,46.02
2023-03-07T08:52:00.866Z,48.67
2023-03-07T08:55:06.630Z,47.20
2023-03-07T08:58:10.691Z,46.13
2023-03-07T09:01:14.992Z,47.12
2023-03-07T09:04:18.859Z,46.88
2023-03-07T09:07:22.791Z,46.21
2023-03-07T09:10:28.118Z,47.38
2023-03-07T09:13:35.929Z,45.83
2023-03-07T09:16:42.182Z,45.32
2023-03-07T09:19:46.014Z,44.90
2023-03-07T09:22:51.899Z,45.09
2023-03-07T09:26:00.319Z,43.46
2023-03-07T09:29:04.434Z,43.68
2023-03-07T09:32:08.647Z,44.25
2023-03-07T09:35:23.164Z,43.28
2023-03-07T09:38:29.505Z,43.58
2023-03-07T09:41:57.392Z,43.85
2023-03-07T09:45:21.310Z,42.86
2023-03-07T09:49:06.145Z,42.74
2023-03-07T09:52:16.165Z,41.54
2023-03-07T09:55:22.573Z,41.17
2023-03-07T09:58:29.214Z,41.42
2023-03-07T10:01:37.530Z,41.04
2023-03-07T10:04:48.388Z,40.92
2023-03-07T10:07:53.430Z,38.92
2023-03-07T10:11:07.973Z,39.30
2023-03-07T10:14:25.735Z,38.90
2023-03-07T10:17:47.315Z,38.43
2023-03-07T10:20:58.533Z,38.46
2023-03-07T10:24:31.820Z,38.35
2023-03-07T10:27:35.853Z,38.24
2023-03-07T10:30:41.278Z,37.57
2023-03-07T10:33:48.791Z,37.65
2023-03-07T10:37:08.443Z,37.01
2023-03-07T10:40:23.605Z,36.72
2023-03-07T10:43:29.980Z,37.12
2023-03-07T10:46:38.022Z,36.87
2023-03-07T10:49:46.758Z,37.53
2023-03-07T10:52:55.004Z,39.21
2023-03-07T10:56:12.615Z,38.78
2023-03-07T10:59:26.157Z,38.91
2023-03-07T11:02:36.415Z,38.72
2023-03-07T11:05:41.015Z,38.66
2023-03-07T11:08:46.996Z,38.08
2023-03-07T11:11:54.065Z,37.93
2023-03-07T11:14:59.570Z,37.63
2023-03-07T11:18:05.140Z,38.81
2023-03-07T11:21:28.330Z,38.40
2023-03-07T11:24:35.074Z,38.39
2023-03-07T11:27:40.814Z,36.82
2023-03-07T11:30:51.824Z,38.24
2023-03-07T11:34:02.648Z,38.09
2023-03-07T11:37:24.898Z,38.31
2023-03-07T11:40:33.371Z,39.05
2023-03-07T11:43:50.088Z,40.16
2023-03-07T11:47:21.148Z,38.92
2023-03-07T11:50:29.043Z,38.57
2023-03-07T11:53:44.965Z,37.62
2023-03-07T11:56:53.271Z,37.79
2023-03-07T12:00:16.771Z,36.36
2023-03-07T12:03:44.602Z,36.45
2023-03-07T12:06:58.245Z,36.70
2023-03-07T12:10:09.868Z,37.59
2023-03-07T12:13:23.560Z,37.50
2023-03-07T12:16:40.350Z,37.65
2023-03-07T12:20:10.013Z,37.54
2023-03-07T12:23:22.378Z,36.46
2023-03-07T12:26:32.959Z,36.62
2023-03-07T12:29:38.819Z,35.26
2023-03-07T12:32:43.217Z,35.58
2023-03-07T12:35:53.535Z,38.18
2023-03-07T12:39:03.908Z,38.75
2023-03-07T12:42:17.752Z,39.29
2023-03-07T12:45:25.404Z,38.76
2023-03-07T12:48:39.792Z,39.28
2023-03-07T12:51:49.393Z,39.26
2023-03-07T12:55:00.711Z,39.69
2023-03-07T12:58:09.056Z,39.70
2023-03-07T13:01:19.454Z,39.83
2023-03-07T13:04:29.753Z,39.70
2023-03-07T13:07:35.976Z,40.17
2023-03-07T13:10:41.373Z,39.96
2023-03-07T13:13:57.336Z,41.35
2023-03-07T13:17:01.186Z,41.01
2023-03-07T13:20:26.059Z,41.04
2023-03-07T13:23:30.084Z,40.69
2023-03-07T13:26:35.394Z,41.08
2023-03-07T13:30:07.630Z,40.86
2023-03-07T13:33:27.830Z,40.61
2023-03-07T13:36:39.373Z,40.22
2023-03-07T13:40:02.804Z,38.93
2023-03-07T13:43:42.722Z,38.88
2023-03-07T13:46:49.472Z,39.22
2023-03-07T13:49:53.286Z,38.97
2023-03-07T13:52:57.116Z,39.03
2023-03-07T13:56:04.861Z,38.55
2023-03-07T13:59:20.767Z,38.81
2023-03-07T14:02:26.908Z,38.89
2023-03-07T14:05:33.522Z,39.01
2023-03-07T14:08:37.537Z,38.81
2023-03-07T14:11:48.770Z,38.69
2023-03-07T14:15:08.408Z,38.73
2023-03-07T14:18:28.437Z,39.19
2023-03-07T14:21:46.096Z,39.65
2023-03-07T14:25:01.548Z,39.96
2023-03-07T14:28:20.065Z,40.69
2023-03-07T14:31:27.083Z,41.49
2023-03-07T14:34:34.354Z,41.36
2023-03-07T14:37:40.795Z,41.64
2023-03-07T14:40:56.978Z,42.33
2023-03-07T14:44:13.629Z,41.66
2023-03-07T14:47:31.988Z,41.75
2023-03-07T14:50:44.199Z,41.97
2023-03-07T14:53:48.483Z,42.57
2023-03-07T14:56:55.305Z,42.87
2023-03-07T15:00:23.678Z,43.49
2023-03-07T15:03:27.564Z,43.52
2023-03-07T15:06:32.883Z,44.00
2023-03-07T15:09:36.697Z,43.90
2023-03-07T15:12:40.831Z,43.69
2023-03-07T15:15:48.866Z,44.06
2023-03-07T15:18:56.374Z,44.54
2023-03-07T15:22:03.910Z,44.41
2023-03-07T15:25:08.790Z,43.88
2023-03-07T15:28:19.842Z,44.42
2023-03-07T15:31:24.564Z,44.17
2023-03-07T15:34:30.888Z,45.47
2023-03-07T15:37:37.798Z,45.56
2023-03-07T15:40:41.724Z,45.88
2023-03-07T15:43:45.613Z,45.91
2023-03-07T15:46:51.935Z,46.31
2023-03-07T15:49:58.262Z,46.82
2023-03-07T15:53:08.630Z,47.32
2023-03-07T15:56:26.081Z,47.61
2023-03-07T15:59:32.978Z,47.32
2023-03-07T16:02:43.413Z,47.54
2023-03-07T16:05:47.376Z,47.87
2023-03-07T16:08:52.987Z,47.98
2023-03-07T16:11:57.094Z,48.07
2023-03-07T16:15:03.907Z,48.32
2023-03-07T16:18:07.959Z,48.63
2023-03-07T16:21:14.851Z,48.06
2023-03-07T16:24:20.108Z,48.28
2023-03-07T16:27:25.961Z,48.82
2023-03-07T16:30:30.625Z,48.64
2023-03-07T16:33:34.446Z,48.36
2023-03-07T16:36:38.392Z,48.33
2023-03-07T16:39:43.689Z,48.01
2023-03-07T16:42:50.588Z,47.81
2023-03-07T16:45:57.555Z,47.75
2023-03-07T16:49:01.478Z,48.41
2023-03-07T16:52:06.591Z,48.63
2023-03-07T16:55:14.620Z,48.16
2023-03-07T16:58:23.779Z,48.64
2023-03-07T17:01:27.660Z,48.58
2023-03-07T17:04:31.396Z,49.07
2023-03-07T17:07:35.172Z,49.13
2023-03-07T17:10:42.600Z,49.25
2023-03-07T17:13:50.202Z,49.52
2023-03-07T17:16:54.058Z,49.71
2023-03-07T17:19:57.785Z,49.85
2023-03-07T17:23:01.746Z,49.88
2023-03-07T17:26:07.758Z,50.13
2023-03-07T17:29:17.522Z,50.19
2023-03-07T17:32:21.260Z,50.31
2023-03-07T17:35:25.780Z,50.09
2023-03-07T17:38:29.527Z,50.09
2023-03-07T17:41:34.858Z,50.43
2023-03-07T17:44:39.693Z,50.65
2023-03-07T17:47:43.538Z,50.92
2023-03-07T17:50:47.477Z,51.83
2023-03-07T17:53:51.199Z,52.11
2023-03-07T17:56:57.448Z,52.35
2023-03-07T18:00:01.152Z,52.20
2023-03-07T18:03:05.884Z,52.71
2023-03-07T18:06:10.446Z,52.82
2023-03-07T18:09:15.532Z,52.63
2023-03-07T18:12:20.816Z,53.48
2023-03-07T18:15:25.073Z,53.15
2023-03-07T18:18:33.154Z,53.40
2023-03-07T18:21:37.316Z,53.86
2023-03-07T18:24:41.215Z,54.06
2023-03-07T18:27:47.064Z,54.09
2023-03-07T18:30:50.923Z,54.34
2023-03-07T18:33:56.629Z,54.91
2023-03-07T18:37:00.442Z,54.82
2023-03-07T18:40:04.604Z,56.19
2023-03-07T18:43:09.968Z,56.57
2023-03-07T18:46:16.415Z,55.86
2023-03-07T18:49:20.244Z,55.95
2023-03-07T18:52:24.021Z,55.89
2023-03-07T18:55:27.745Z,56.40
2023-03-07T18:58:33.161Z,56.22
2023-03-07T19:01:38.077Z,57.30
2023-03-07T19:04:41.874Z,56.85
2023-03-07T19:07:45.830Z,57.25
2023-03-07T19:10:49.602Z,56.91
2023-03-07T19:13:54.838Z,56.91
2023-03-07T19:16:58.631Z,56.89
2023-03-07T19:20:03.860Z,57.01
2023-03-07T19:23:07.861Z,57.10
2023-03-07T19:26:13.607Z,59.53
2023-03-07T19:29:18.932Z,58.90
2023-03-07T19:32:22.858Z,58.88
2023-03-07T19:35:26.701Z,59.31
2023-03-07T19:38:30.570Z,60.17
2023-03-07T19:41:35.967Z,60.16
2023-03-07T19:44:41.463Z,60.79
2023-03-07T19:47:45.415Z,60.77
2023-03-07T19:50:49.202Z,62.52
2023-03-07T19:53:56.800Z,61.73
2023-03-07T19:57:13.383Z,61.90
2023-03-07T20:00:20.550Z,61.14
2023-03-07T20:03:24.442Z,60.72
2023-03-07T20:06:31.056Z,60.43
2023-03-07T20:09:35.326Z,60.17
2023-03-07T20:12:39.200Z,60.12
2023-03-07T20:15:53.246Z,59.71
2023-03-07T20:18:59.114Z,61.21
2023-03-07T20:22:02.950Z,60.74
2023-03-07T20:25:07.884Z,60.31
2023-03-07T20:28:12.702Z,61.14
2023-03-07T20:31:18.161Z,60.46
2023-03-07T20:34:24.910Z,59.70
2023-03-07T20:37:32.620Z,59.41
2023-03-07T20:40:36.449Z,60.48
2023-03-07T20:43:40.425Z,59.31
2023-03-07T20:46:45.627Z,58.90
2023-03-07T20:49:49.507Z,58.46
2023-03-07T20:52:53.534Z,58.60
2023-03-07T20:56:02.452Z,58.59
2023-03-07T20:59:06.916Z,58.99
2023-03-07T21:02:13.046Z,59.36
2023-03-07T21:05:17.079Z,59.54
2023-03-07T21:08:21.002Z,60.12
2023-03-07T21:11:24.872Z,59.65
2023-03-07T21:14:29.017Z,60.22
2023-03-07T21:17:35.527Z,60.27
2023-03-07T21:20:41.148Z,60.62
2023-03-07T21:23:45.432Z,61.17
2023-03-07T21:26:49.310Z,60.26
2023-03-07T21:29:52.972Z,60.62
2023-03-07T21:32:58.885Z,60.42
2023-03-07T21:36:03.226Z,60.20
2023-03-07T21:39:10.219Z,60.16
2023-03-07T21:42:14.110Z,60.24
2023-03-07T21:45:18.227Z,60.27
2023-03-07T21:48:23.618Z,60.56
2023-03-07T21:51:27.411Z,60.79
2023-03-07T21:54:31.436Z,61.11
2023-03-07T21:57:35.196Z,61.28
2023-03-07T22:00:39.018Z,62.39
2023-03-07T22:03:44.463Z,61.38
2023-03-07T22:06:48.876Z,61.25
2023-03-07T22:09:52.576Z,60.95
2023-03-07T22:12:56.530Z,60.86
2023-03-07T22:16:01.088Z,61.26
2023-03-07T22:19:06.361Z,60.84
2023-03-07T22:22:10.435Z,60.94
2023-03-07T22:25:14.273Z,60.59
2023-03-07T22:28:19.635Z,60.55
2023-03-07T22:31:23.609Z,61.75
2023-03-07T22:34:29.043Z,61.31
2023-03-07T22:37:33.403Z,61.37
2023-03-07T22:40:39.977Z,61.64
2023-03-07T22:43:44.186Z,61.07
2023-03-07T22:46:48.713Z,62.02
2023-03-07T22:49:54.083Z,61.76
2023-03-07T22:52:57.785Z,62.54
2023-03-07T22:56:02.129Z,62.04
2023-03-07T22:59:07.101Z,63.66
2023-03-07T23:02:10.922Z,62.32
2023-03-07T23:05:16.216Z,61.95
2023-03-07T23:08:20.752Z,62.98
2023-03-07T23:11:26.340Z,62.96
2023-03-07T23:14:30.091Z,62.39
2023-03-07T23:17:33.887Z,63.57
2023-03-07T23:20:39.632Z,62.71
2023-03-07T23:23:43.557Z,62.63
2023-03-07T23:26:47.421Z,63.18
2023-03-07T23:29:51.124Z,62.70
2023-03-07T23:32:56.089Z,63.22
2023-03-07T23:36:02.310Z,62.91
2023-03-07T23:39:06.211Z,63.72
2023-03-07T23:42:12.928Z,65.25
2023-03-07T23:45:16.839Z,66.02
2023-03-07T23:48:20.819Z,66.77
2023-03-07T23:51:26.959Z,68.03
2023-03-07T23:54:30.782Z,67.04
2023-03-07T23:57:34.653Z,66.76
